sensor_id;sensor_type;location;lat;lon;timestamp;pressure;altitude;pressure_sealevel;temperature;humidity
7376;BME280;3728;42.266;24.944;2023-05-24T00:00:04;99268.31;;;15.65;100.00
7376;BME280;3728;42.266;24.944;2023-05-24T00:02:35;99278.78;;;15.61;100.00
7376;BME280;3728;42.266;24.944;2023-05-24T00:05:03;99278.25;;;15.56;100.00
7376;BME280;3728;42.266;24.944;2023-05-24T00:07:34;99286.44;;;15.51;100.00
7376;BME280;3728;42.266;24.944;2023-05-24T00:10:06;99285.66;;;15.38;100.00
7376;BME280;3728;42.266;24.944;2023-05-24T00:12:34;99276.53;;;15.20;100.00
7376;BME280;3728;42.266;24.944;2023-05-24T00:15:01;99280.00;;;15.24;100.00
7376;BME280;3728;42.266;24.944;2023-05-24T00:17:29;99277.72;;;15.23;100.00
7376;BME280;3728;42.266;24.944;2023-05-24T00:19:57;99273.03;;;15.16;100.00
7376;BME280;3728;42.266;24.944;2023-05-24T00:22:25;99274.88;;;15.16;100.00
7376;BME280;3728;42.266;24.944;2023-05-24T00:24:52;99279.19;;;15.08;100.00
7376;BME280;3728;42.266;24.944;2023-05-24T00:27:20;99284.97;;;15.26;100.00
7376;BME280;3728;42.266;24.944;2023-05-24T00:29:48;99279.69;;;15.26;100.00
7376;BME280;3728;42.266;24.944;2023-05-24T00:32:15;99284.00;;;15.18;100.00
7376;BME280;3728;42.266;24.944;2023-05-24T00:34:43;99288.91;;;15.32;100.00
7376;BME280;3728;42.266;24.944;2023-05-24T00:37:10;99273.09;;;15.20;100.00
7376;BME280;3728;42.266;24.944;2023-05-24T00:39:38;99271.03;;;15.13;100.00
7376;BME280;3728;42.266;24.944;2023-05-24T00:42:06;99271.63;;;15.06;100.00
7376;BME280;3728;42.266;24.944;2023-05-24T00:44:34;99265.28;;;14.95;100.00
7376;BME280;3728;42.266;24.944;2023-05-24T00:47:02;99271.00;;;14.97;100.00
7376;BME280;3728;42.266;24.944;2023-05-24T00:49:30;99264.31;;;14.88;100.00
7376;BME280;3728;42.266;24.944;2023-05-24T00:51:58;99262.00;;;14.86;100.00
7376;BME280;3728;42.266;24.944;2023-05-24T00:54:27;99260.56;;;14.89;100.00
7376;BME280;3728;42.266;24.944;2023-05-24T00:56:56;99268.72;;;14.84;100.00
7376;BME280;3728;42.266;24.944;2023-05-24T00:59:25;99266.31;;;14.79;100.00
7376;BME280;3728;42.266;24.944;2023-05-24T01:01:52;99266.41;;;14.82;100.00
7376;BME280;3728;42.266;24.944;2023-05-24T01:04:21;99273.31;;;14.87;100.00
7376;BME280;3728;42.266;24.944;2023-05-24T01:06:51;99268.78;;;14.99;100.00
7376;BME280;3728;42.266;24.944;2023-05-24T01:15:41;99273.84;;;15.04;100.00
7376;BME280;3728;42.266;24.944;2023-05-24T01:18:17;99268.78;;;14.99;100.00
7376;BME280;3728;42.266;24.944;2023-05-24T01:29:34;99278.56;;;14.99;100.00
7376;BME280;3728;42.266;24.944;2023-05-24T01:32:03;99286.47;;;14.99;100.00
7376;BME280;3728;42.266;24.944;2023-05-24T01:34:31;99280.84;;;15.00;100.00
7376;BME280;3728;42.266;24.944;2023-05-24T01:36:58;99286.44;;;15.11;100.00
7376;BME280;3728;42.266;24.944;2023-05-24T01:39:28;99277.94;;;15.18;100.00
7376;BME280;3728;42.266;24.944;2023-05-24T01:42:10;99285.16;;;15.33;100.00
7376;BME280;3728;42.266;24.944;2023-05-24T01:47:44;99287.59;;;15.26;100.00
7376;BME280;3728;42.266;24.944;2023-05-24T01:50:21;99290.22;;;14.98;100.00
7376;BME280;3728;42.266;24.944;2023-05-24T01:53:05;99294.63;;;14.94;100.00
7376;BME280;3728;42.266;24.944;2023-05-24T01:55:36;99298.88;;;14.98;100.00
7376;BME280;3728;42.266;24.944;2023-05-24T01:58:05;99301.44;;;14.95;100.00
7376;BME280;3728;42.266;24.944;2023-05-24T02:00:34;99300.00;;;14.97;100.00
7376;BME280;3728;42.266;24.944;2023-05-24T02:03:03;99295.41;;;14.82;100.00
7376;BME280;3728;42.266;24.944;2023-05-24T02:05:32;99295.84;;;14.84;100.00
7376;BME280;3728;42.266;24.944;2023-05-24T02:08:04;99294.53;;;14.90;100.00
7376;BME280;3728;42.266;24.944;2023-05-24T02:10:31;99292.22;;;14.89;100.00
7376;BME280;3728;42.266;24.944;2023-05-24T02:12:59;99296.88;;;15.07;100.00
7376;BME280;3728;42.266;24.944;2023-05-24T02:15:27;99292.41;;;14.96;100.00
7376;BME280;3728;42.266;24.944;2023-05-24T02:17:56;99303.09;;;14.87;100.00
7376;BME280;3728;42.266;24.944;2023-05-24T02:20:24;99299.38;;;14.76;100.00
7376;BME280;3728;42.266;24.944;2023-05-24T02:22:54;99303.47;;;14.62;100.00
7376;BME280;3728;42.266;24.944;2023-05-24T02:25:24;99297.78;;;14.48;100.00
7376;BME280;3728;42.266;24.944;2023-05-24T02:27:52;99301.28;;;14.39;100.00
7376;BME280;3728;42.266;24.944;2023-05-24T02:30:20;99302.00;;;14.28;100.00
7376;BME280;3728;42.266;24.944;2023-05-24T02:32:47;99310.88;;;14.11;100.00
7376;BME280;3728;42.266;24.944;2023-05-24T02:35:15;99307.81;;;14.09;100.00
7376;BME280;3728;42.266;24.944;2023-05-24T02:37:42;99302.97;;;13.99;100.00
7376;BME280;3728;42.266;24.944;2023-05-24T02:40:11;99303.66;;;14.08;100.00
7376;BME280;3728;42.266;24.944;2023-05-24T02:42:39;99293.88;;;14.09;100.00
7376;BME280;3728;42.266;24.944;2023-05-24T02:45:07;99296.41;;;14.17;100.00
7376;BME280;3728;42.266;24.944;2023-05-24T02:47:34;99301.69;;;14.29;100.00
7376;BME280;3728;42.266;24.944;2023-05-24T02:50:02;99300.94;;;14.29;100.00
7376;BME280;3728;42.266;24.944;2023-05-24T02:52:30;99298.63;;;14.15;100.00
7376;BME280;3728;42.266;24.944;2023-05-24T02:54:58;99296.63;;;14.12;100.00
7376;BME280;3728;42.266;24.944;2023-05-24T02:57:26;99304.53;;;14.24;100.00
7376;BME280;3728;42.266;24.944;2023-05-24T02:59:54;99297.19;;;14.30;100.00
7376;BME280;3728;42.266;24.944;2023-05-24T03:02:22;99301.19;;;14.36;100.00
7376;BME280;3728;42.266;24.944;2023-05-24T03:04:50;99301.47;;;14.22;100.00
7376;BME280;3728;42.266;24.944;2023-05-24T03:07:18;99301.34;;;14.19;100.00
7376;BME280;3728;42.266;24.944;2023-05-24T03:09:45;99299.50;;;14.19;100.00
7376;BME280;3728;42.266;24.944;2023-05-24T03:12:13;99299.59;;;14.23;100.00
7376;BME280;3728;42.266;24.944;2023-05-24T03:14:41;99301.78;;;14.21;100.00
7376;BME280;3728;42.266;24.944;2023-05-24T03:17:09;99299.84;;;14.30;100.00
7376;BME280;3728;42.266;24.944;2023-05-24T03:19:37;99302.34;;;14.26;100.00
7376;BME280;3728;42.266;24.944;2023-05-24T03:22:04;99307.88;;;14.33;100.00
7376;BME280;3728;42.266;24.944;2023-05-24T03:24:34;99303.44;;;14.25;100.00
7376;BME280;3728;42.266;24.944;2023-05-24T03:27:05;99305.06;;;14.18;100.00
7376;BME280;3728;42.266;24.944;2023-05-24T03:29:34;99302.34;;;14.26;100.00
7376;BME280;3728;42.266;24.944;2023-05-24T03:32:02;99297.97;;;14.30;100.00
7376;BME280;3728;42.266;24.944;2023-05-24T03:34:30;99308.88;;;14.41;100.00
7376;BME280;3728;42.266;24.944;2023-05-24T03:36:58;99308.50;;;14.67;100.00
7376;BME280;3728;42.266;24.944;2023-05-24T03:39:26;99312.34;;;14.81;100.00
7376;BME280;3728;42.266;24.944;2023-05-24T03:42:01;99310.38;;;15.18;100.00
7376;BME280;3728;42.266;24.944;2023-05-24T03:44:30;99307.56;;;15.11;100.00
7376;BME280;3728;42.266;24.944;2023-05-24T03:46:58;99308.13;;;15.04;100.00
7376;BME280;3728;42.266;24.944;2023-05-24T03:49:26;99309.63;;;15.05;100.00
7376;BME280;3728;42.266;24.944;2023-05-24T03:51:54;99312.44;;;14.73;100.00
7376;BME280;3728;42.266;24.944;2023-05-24T03:54:21;99313.00;;;14.66;100.00
7376;BME280;3728;42.266;24.944;2023-05-24T03:56:49;99310.38;;;14.54;100.00
7376;BME280;3728;42.266;24.944;2023-05-24T03:59:18;99312.94;;;14.51;100.00
7376;BME280;3728;42.266;24.944;2023-05-24T04:01:48;99324.34;;;14.43;100.00
7376;BME280;3728;42.266;24.944;2023-05-24T04:04:15;99327.75;;;14.43;100.00
7376;BME280;3728;42.266;24.944;2023-05-24T04:06:43;99337.28;;;14.60;100.00
7376;BME280;3728;42.266;24.944;2023-05-24T04:09:11;99333.97;;;14.87;100.00
7376;BME280;3728;42.266;24.944;2023-05-24T04:11:40;99340.88;;;14.91;100.00
7376;BME280;3728;42.266;24.944;2023-05-24T04:14:10;99332.75;;;14.84;100.00
7376;BME280;3728;42.266;24.944;2023-05-24T04:16:38;99344.69;;;15.06;100.00
7376;BME280;3728;42.266;24.944;2023-05-24T04:19:07;99357.22;;;15.21;100.00
7376;BME280;3728;42.266;24.944;2023-05-24T04:21:36;99343.22;;;15.33;100.00
7376;BME280;3728;42.266;24.944;2023-05-24T04:24:04;99349.16;;;15.30;100.00
7376;BME280;3728;42.266;24.944;2023-05-24T04:26:34;99351.41;;;15.43;100.00
7376;BME280;3728;42.266;24.944;2023-05-24T04:29:03;99358.22;;;15.56;100.00
7376;BME280;3728;42.266;24.944;2023-05-24T04:31:31;99353.47;;;15.62;100.00
7376;BME280;3728;42.266;24.944;2023-05-24T04:34:00;99349.25;;;15.73;100.00
7376;BME280;3728;42.266;24.944;2023-05-24T04:36:28;99353.59;;;15.81;100.00
7376;BME280;3728;42.266;24.944;2023-05-24T04:38:59;99348.84;;;15.87;100.00
7376;BME280;3728;42.266;24.944;2023-05-24T04:41:30;99358.66;;;16.02;100.00
7376;BME280;3728;42.266;24.944;2023-05-24T04:43:57;99357.06;;;16.13;100.00
7376;BME280;3728;42.266;24.944;2023-05-24T04:46:25;99361.91;;;16.26;100.00
7376;BME280;3728;42.266;24.944;2023-05-24T04:48:53;99364.66;;;16.46;100.00
7376;BME280;3728;42.266;24.944;2023-05-24T04:51:21;99352.88;;;16.43;100.00
7376;BME280;3728;42.266;24.944;2023-05-24T04:53:49;99350.41;;;16.66;100.00
7376;BME280;3728;42.266;24.944;2023-05-24T04:56:16;99358.69;;;16.64;100.00
7376;BME280;3728;42.266;24.944;2023-05-24T04:58:46;99362.59;;;16.70;100.00
7376;BME280;3728;42.266;24.944;2023-05-24T05:01:14;99356.78;;;16.80;100.00
7376;BME280;3728;42.266;24.944;2023-05-24T05:03:41;99357.97;;;16.83;100.00
7376;BME280;3728;42.266;24.944;2023-05-24T05:06:11;99356.31;;;16.94;100.00
7376;BME280;3728;42.266;24.944;2023-05-24T05:08:39;99354.72;;;16.89;100.00
7376;BME280;3728;42.266;24.944;2023-05-24T05:11:07;99357.22;;;16.82;100.00
7376;BME280;3728;42.266;24.944;2023-05-24T05:13:34;99360.00;;;16.89;100.00
7376;BME280;3728;42.266;24.944;2023-05-24T05:16:02;99367.09;;;16.85;100.00
7376;BME280;3728;42.266;24.944;2023-05-24T05:18:30;99357.03;;;17.10;100.00
7376;BME280;3728;42.266;24.944;2023-05-24T05:20:59;99364.84;;;17.03;99.94
7376;BME280;3728;42.266;24.944;2023-05-24T05:23:29;99368.47;;;16.95;100.00
7376;BME280;3728;42.266;24.944;2023-05-24T05:25:56;99361.81;;;16.85;100.00
7376;BME280;3728;42.266;24.944;2023-05-24T05:28:24;99362.53;;;17.01;100.00
7376;BME280;3728;42.266;24.944;2023-05-24T05:30:52;99364.25;;;17.09;100.00
7376;BME280;3728;42.266;24.944;2023-05-24T05:33:19;99365.59;;;17.03;100.00
7376;BME280;3728;42.266;24.944;2023-05-24T05:35:47;99365.06;;;17.14;100.00
7376;BME280;3728;42.266;24.944;2023-05-24T05:38:14;99369.34;;;17.37;100.00
7376;BME280;3728;42.266;24.944;2023-05-24T05:40:42;99373.34;;;17.66;100.00
7376;BME280;3728;42.266;24.944;2023-05-24T05:43:10;99368.53;;;17.71;99.13
7376;BME280;3728;42.266;24.944;2023-05-24T05:45:37;99378.28;;;17.67;98.96
7376;BME280;3728;42.266;24.944;2023-05-24T05:48:05;99378.50;;;17.78;99.46
7376;BME280;3728;42.266;24.944;2023-05-24T05:50:33;99377.88;;;18.07;96.15
7376;BME280;3728;42.266;24.944;2023-05-24T05:53:01;99384.81;;;17.93;96.55
7376;BME280;3728;42.266;24.944;2023-05-24T05:55:29;99392.59;;;18.05;97.05
7376;BME280;3728;42.266;24.944;2023-05-24T05:57:56;99389.53;;;18.25;95.92
7376;BME280;3728;42.266;24.944;2023-05-24T06:00:24;99393.56;;;18.38;95.03
7376;BME280;3728;42.266;24.944;2023-05-24T06:02:52;99400.06;;;18.64;92.31
7376;BME280;3728;42.266;24.944;2023-05-24T06:05:19;99405.06;;;18.69;91.07
7376;BME280;3728;42.266;24.944;2023-05-24T06:07:47;99402.00;;;18.67;90.54
7376;BME280;3728;42.266;24.944;2023-05-24T06:10:15;99407.25;;;18.63;89.99
7376;BME280;3728;42.266;24.944;2023-05-24T06:12:43;99400.47;;;18.66;90.94
7376;BME280;3728;42.266;24.944;2023-05-24T06:15:10;99412.72;;;18.74;90.31
7376;BME280;3728;42.266;24.944;2023-05-24T06:17:39;99406.38;;;18.82;91.73
7376;BME280;3728;42.266;24.944;2023-05-24T06:20:10;99412.94;;;19.40;88.59
7376;BME280;3728;42.266;24.944;2023-05-24T06:22:43;99406.72;;;19.59;85.96
7376;BME280;3728;42.266;24.944;2023-05-24T06:25:11;99404.78;;;19.56;86.01
7376;BME280;3728;42.266;24.944;2023-05-24T06:27:41;99409.38;;;19.96;83.42
7376;BME280;3728;42.266;24.944;2023-05-24T06:30:09;99417.41;;;19.99;82.64
7376;BME280;3728;42.266;24.944;2023-05-24T06:32:39;99406.81;;;20.03;82.61
7376;BME280;3728;42.266;24.944;2023-05-24T06:35:07;99405.69;;;20.04;82.66
7376;BME280;3728;42.266;24.944;2023-05-24T06:37:35;99409.00;;;19.94;84.46
7376;BME280;3728;42.266;24.944;2023-05-24T06:40:06;99405.44;;;20.19;83.67
7376;BME280;3728;42.266;24.944;2023-05-24T06:42:38;99406.88;;;20.47;81.10
7376;BME280;3728;42.266;24.944;2023-05-24T06:45:06;99402.69;;;20.49;80.18
7376;BME280;3728;42.266;24.944;2023-05-24T06:47:34;99405.81;;;20.58;79.98
7376;BME280;3728;42.266;24.944;2023-05-24T06:50:03;99408.38;;;20.44;81.01
7376;BME280;3728;42.266;24.944;2023-05-24T06:52:32;99405.41;;;20.53;81.93
7376;BME280;3728;42.266;24.944;2023-05-24T06:54:59;99398.88;;;21.01;77.88
7376;BME280;3728;42.266;24.944;2023-05-24T06:57:27;99400.69;;;20.86;79.12
7376;BME280;3728;42.266;24.944;2023-05-24T06:59:54;99401.53;;;20.97;79.32
7376;BME280;3728;42.266;24.944;2023-05-24T07:02:22;99394.50;;;21.30;77.38
7376;BME280;3728;42.266;24.944;2023-05-24T07:04:53;99394.69;;;21.00;78.87
7376;BME280;3728;42.266;24.944;2023-05-24T07:07:21;99400.47;;;21.05;79.11
7376;BME280;3728;42.266;24.944;2023-05-24T07:09:48;99399.78;;;21.23;79.82
7376;BME280;3728;42.266;24.944;2023-05-24T07:12:16;99400.25;;;21.35;78.36
7376;BME280;3728;42.266;24.944;2023-05-24T07:14:44;99389.28;;;21.58;77.86
7376;BME280;3728;42.266;24.944;2023-05-24T07:17:13;99392.00;;;21.72;76.36
7376;BME280;3728;42.266;24.944;2023-05-24T07:19:40;99390.09;;;21.72;76.40
7376;BME280;3728;42.266;24.944;2023-05-24T07:22:08;99390.06;;;21.65;75.99
7376;BME280;3728;42.266;24.944;2023-05-24T07:24:36;99397.78;;;22.02;77.68
7376;BME280;3728;42.266;24.944;2023-05-24T07:27:04;99397.84;;;22.30;73.91
7376;BME280;3728;42.266;24.944;2023-05-24T07:29:32;99391.00;;;22.51;71.82
7376;BME280;3728;42.266;24.944;2023-05-24T07:31:59;99390.97;;;22.26;72.83
7376;BME280;3728;42.266;24.944;2023-05-24T07:34:27;99394.41;;;22.33;74.85
7376;BME280;3728;42.266;24.944;2023-05-24T07:36:56;99390.63;;;22.41;76.76
7376;BME280;3728;42.266;24.944;2023-05-24T07:39:26;99386.78;;;22.57;70.78
7376;BME280;3728;42.266;24.944;2023-05-24T07:41:54;99389.09;;;22.58;69.94
7376;BME280;3728;42.266;24.944;2023-05-24T07:44:22;99390.59;;;22.84;70.55
7376;BME280;3728;42.266;24.944;2023-05-24T07:46:49;99387.88;;;23.01;70.28
7376;BME280;3728;42.266;24.944;2023-05-24T07:49:17;99391.69;;;23.11;72.63
7376;BME280;3728;42.266;24.944;2023-05-24T07:51:45;99387.41;;;23.42;67.48
7376;BME280;3728;42.266;24.944;2023-05-24T07:54:13;99391.63;;;23.43;67.98
7376;BME280;3728;42.266;24.944;2023-05-24T07:56:41;99388.13;;;23.53;70.28
7376;BME280;3728;42.266;24.944;2023-05-24T07:59:09;99389.63;;;23.64;66.80
7376;BME280;3728;42.266;24.944;2023-05-24T08:01:36;99387.28;;;23.70;65.18
7376;BME280;3728;42.266;24.944;2023-05-24T08:04:04;99386.28;;;24.05;59.57
7376;BME280;3728;42.266;24.944;2023-05-24T08:06:34;99390.91;;;24.08;59.42
7376;BME280;3728;42.266;24.944;2023-05-24T08:09:02;99386.19;;;24.26;58.84
7376;BME280;3728;42.266;24.944;2023-05-24T08:11:30;99388.22;;;24.08;58.21
7376;BME280;3728;42.266;24.944;2023-05-24T08:13:58;99378.00;;;23.92;59.07
7376;BME280;3728;42.266;24.944;2023-05-24T08:16:25;99380.56;;;24.03;58.08
7376;BME280;3728;42.266;24.944;2023-05-24T08:18:53;99377.56;;;23.97;60.54
7376;BME280;3728;42.266;24.944;2023-05-24T08:21:21;99382.69;;;24.32;61.58
7376;BME280;3728;42.266;24.944;2023-05-24T08:23:49;99389.13;;;24.38;58.23
7376;BME280;3728;42.266;24.944;2023-05-24T08:26:16;99385.09;;;25.05;53.47
7376;BME280;3728;42.266;24.944;2023-05-24T08:28:46;99384.75;;;25.03;55.12
7376;BME280;3728;42.266;24.944;2023-05-24T08:31:14;99383.28;;;24.98;55.59
7376;BME280;3728;42.266;24.944;2023-05-24T08:33:43;99379.63;;;24.78;55.33
7376;BME280;3728;42.266;24.944;2023-05-24T08:36:11;99379.19;;;24.83;57.01
7376;BME280;3728;42.266;24.944;2023-05-24T08:38:38;99384.91;;;24.89;57.20
7376;BME280;3728;42.266;24.944;2023-05-24T08:41:06;99380.75;;;25.18;56.20
7376;BME280;3728;42.266;24.944;2023-05-24T08:43:34;99382.00;;;25.44;55.35
7376;BME280;3728;42.266;24.944;2023-05-24T08:46:02;99385.56;;;25.30;56.67
7376;BME280;3728;42.266;24.944;2023-05-24T08:48:31;99386.66;;;25.02;58.03
7376;BME280;3728;42.266;24.944;2023-05-24T08:51:02;99390.63;;;25.25;57.62
7376;BME280;3728;42.266;24.944;2023-05-24T08:53:31;99386.22;;;25.41;55.63
7376;BME280;3728;42.266;24.944;2023-05-24T08:55:59;99399.94;;;25.77;53.32
7376;BME280;3728;42.266;24.944;2023-05-24T08:58:27;99396.69;;;25.93;54.45
7376;BME280;3728;42.266;24.944;2023-05-24T09:00:57;99391.56;;;26.52;52.23
7376;BME280;3728;42.266;24.944;2023-05-24T09:03:25;99388.00;;;26.58;51.48
7376;BME280;3728;42.266;24.944;2023-05-24T09:05:53;99381.19;;;26.54;54.11
7376;BME280;3728;42.266;24.944;2023-05-24T09:08:21;99385.63;;;26.64;50.51
7376;BME280;3728;42.266;24.944;2023-05-24T09:10:49;99390.38;;;26.53;48.94
7376;BME280;3728;42.266;24.944;2023-05-24T09:13:22;99379.84;;;26.42;48.90
7376;BME280;3728;42.266;24.944;2023-05-24T09:15:52;99377.63;;;27.23;46.38
7376;BME280;3728;42.266;24.944;2023-05-24T09:18:19;99385.31;;;26.81;48.39
7376;BME280;3728;42.266;24.944;2023-05-24T09:20:47;99388.34;;;26.83;47.82
7376;BME280;3728;42.266;24.944;2023-05-24T09:23:16;99392.78;;;26.70;47.63
7376;BME280;3728;42.266;24.944;2023-05-24T09:25:44;99387.88;;;26.88;47.82
7376;BME280;3728;42.266;24.944;2023-05-24T09:28:14;99388.47;;;27.39;45.09
7376;BME280;3728;42.266;24.944;2023-05-24T09:31:03;99385.81;;;27.35;45.27
7376;BME280;3728;42.266;24.944;2023-05-24T09:33:34;99384.03;;;27.48;43.92
7376;BME280;3728;42.266;24.944;2023-05-24T09:36:03;99378.84;;;27.57;42.67
7376;BME280;3728;42.266;24.944;2023-05-24T09:38:33;99382.06;;;27.68;41.77
7376;BME280;3728;42.266;24.944;2023-05-24T09:41:06;99373.50;;;27.38;44.09
7376;BME280;3728;42.266;24.944;2023-05-24T09:43:46;99370.69;;;27.61;41.69
7376;BME280;3728;42.266;24.944;2023-05-24T09:46:16;99378.78;;;27.77;43.26
7376;BME280;3728;42.266;24.944;2023-05-24T09:48:58;99381.41;;;27.80;43.02
7376;BME280;3728;42.266;24.944;2023-05-24T09:51:29;99377.34;;;27.72;42.54
7376;BME280;3728;42.266;24.944;2023-05-24T09:54:00;99379.28;;;27.36;43.33
7376;BME280;3728;42.266;24.944;2023-05-24T09:56:29;99371.81;;;27.24;42.77
7376;BME280;3728;42.266;24.944;2023-05-24T09:59:05;99370.03;;;26.98;43.82
7376;BME280;3728;42.266;24.944;2023-05-24T10:01:36;99372.09;;;27.10;41.75
7376;BME280;3728;42.266;24.944;2023-05-24T10:04:04;99366.78;;;26.87;42.55
7376;BME280;3728;42.266;24.944;2023-05-24T10:06:36;99365.94;;;26.47;44.13
7376;BME280;3728;42.266;24.944;2023-05-24T10:09:06;99358.16;;;26.53;44.06
7376;BME280;3728;42.266;24.944;2023-05-24T10:11:36;99360.88;;;26.72;45.29
7376;BME280;3728;42.266;24.944;2023-05-24T10:14:04;99356.31;;;26.50;44.51
7376;BME280;3728;42.266;24.944;2023-05-24T10:16:32;99359.13;;;26.42;44.84
7376;BME280;3728;42.266;24.944;2023-05-24T10:19:03;99356.28;;;26.73;43.39
7376;BME280;3728;42.266;24.944;2023-05-24T10:21:35;99357.06;;;26.93;43.62
7376;BME280;3728;42.266;24.944;2023-05-24T10:24:04;99359.06;;;26.89;43.26
7376;BME280;3728;42.266;24.944;2023-05-24T10:26:36;99352.72;;;26.56;44.18
7376;BME280;3728;42.266;24.944;2023-05-24T10:29:07;99349.81;;;26.47;44.06
7376;BME280;3728;42.266;24.944;2023-05-24T10:31:40;99354.75;;;26.72;42.91
7376;BME280;3728;42.266;24.944;2023-05-24T10:34:09;99353.16;;;26.74;44.88
7376;BME280;3728;42.266;24.944;2023-05-24T10:36:37;99345.09;;;26.74;45.43
7376;BME280;3728;42.266;24.944;2023-05-24T10:39:08;99349.22;;;26.82;46.06
7376;BME280;3728;42.266;24.944;2023-05-24T10:41:39;99342.59;;;27.06;45.53
7376;BME280;3728;42.266;24.944;2023-05-24T10:44:12;99340.31;;;27.44;44.51
7376;BME280;3728;42.266;24.944;2023-05-24T10:49:53;99333.75;;;27.26;45.03
7376;BME280;3728;42.266;24.944;2023-05-24T10:52:35;99334.66;;;27.19;44.08
7376;BME280;3728;42.266;24.944;2023-05-24T10:55:05;99339.59;;;27.60;43.50
7376;BME280;3728;42.266;24.944;2023-05-24T10:57:36;99333.00;;;28.13;42.14
7376;BME280;3728;42.266;24.944;2023-05-24T11:03:12;99333.50;;;28.97;39.62
7376;BME280;3728;42.266;24.944;2023-05-24T11:05:53;99324.47;;;29.17;39.50
7376;BME280;3728;42.266;24.944;2023-05-24T11:08:29;99326.59;;;28.96;41.91
7376;BME280;3728;42.266;24.944;2023-05-24T11:11:25;99324.16;;;28.57;40.87
7376;BME280;3728;42.266;24.944;2023-05-24T11:13:59;99330.28;;;28.45;40.21
7376;BME280;3728;42.266;24.944;2023-05-24T11:16:33;99326.91;;;28.25;40.01
7376;BME280;3728;42.266;24.944;2023-05-24T11:21:49;99329.50;;;27.96;40.08
7376;BME280;3728;42.266;24.944;2023-05-24T11:24:19;99327.88;;;28.02;40.02
7376;BME280;3728;42.266;24.944;2023-05-24T11:26:48;99335.19;;;28.18;40.05
7376;BME280;3728;42.266;24.944;2023-05-24T11:29:17;99324.63;;;28.39;42.05
7376;BME280;3728;42.266;24.944;2023-05-24T11:31:53;99330.16;;;28.93;39.22
7376;BME280;3728;42.266;24.944;2023-05-24T11:34:23;99327.34;;;29.51;39.10
7376;BME280;3728;42.266;24.944;2023-05-24T11:36:53;99331.03;;;29.69;38.56
7376;BME280;3728;42.266;24.944;2023-05-24T11:39:21;99314.94;;;29.91;36.44
7376;BME280;3728;42.266;24.944;2023-05-24T11:41:52;99312.56;;;29.55;40.37
7376;BME280;3728;42.266;24.944;2023-05-24T11:44:20;99303.72;;;29.67;38.63
7376;BME280;3728;42.266;24.944;2023-05-24T11:46:49;99291.91;;;29.74;37.80
7376;BME280;3728;42.266;24.944;2023-05-24T11:49:26;99301.75;;;29.68;37.58
7376;BME280;3728;42.266;24.944;2023-05-24T11:51:55;99289.44;;;29.67;36.61
7376;BME280;3728;42.266;24.944;2023-05-24T11:54:24;99291.59;;;29.97;37.21
7376;BME280;3728;42.266;24.944;2023-05-24T11:56:53;99288.66;;;30.38;34.96
7376;BME280;3728;42.266;24.944;2023-05-24T11:59:25;99286.19;;;30.31;36.33
7376;BME280;3728;42.266;24.944;2023-05-24T12:02:01;99277.84;;;30.38;35.73
7376;BME280;3728;42.266;24.944;2023-05-24T12:04:31;99280.16;;;30.27;36.26
7376;BME280;3728;42.266;24.944;2023-05-24T12:07:02;99267.31;;;29.72;36.76
7376;BME280;3728;42.266;24.944;2023-05-24T12:09:31;99274.34;;;29.32;39.05
7376;BME280;3728;42.266;24.944;2023-05-24T12:12:00;99265.38;;;29.60;37.20
7376;BME280;3728;42.266;24.944;2023-05-24T12:14:59;99274.44;;;29.91;37.43
7376;BME280;3728;42.266;24.944;2023-05-24T12:17:27;99262.59;;;30.44;37.23
7376;BME280;3728;42.266;24.944;2023-05-24T12:19:55;99250.88;;;30.69;36.89
7376;BME280;3728;42.266;24.944;2023-05-24T12:22:26;99259.19;;;30.75;36.12
7376;BME280;3728;42.266;24.944;2023-05-24T12:24:56;99255.97;;;30.67;38.52
7376;BME280;3728;42.266;24.944;2023-05-24T12:27:26;99247.25;;;31.16;35.03
7376;BME280;3728;42.266;24.944;2023-05-24T12:30:05;99242.13;;;30.87;35.49
7376;BME280;3728;42.266;24.944;2023-05-24T12:32:35;99244.06;;;31.08;35.78
7376;BME280;3728;42.266;24.944;2023-05-24T12:35:06;99243.06;;;31.24;35.64
7376;BME280;3728;42.266;24.944;2023-05-24T12:37:34;99242.34;;;30.71;34.16
7376;BME280;3728;42.266;24.944;2023-05-24T12:40:02;99241.91;;;30.72;33.35
7376;BME280;3728;42.266;24.944;2023-05-24T12:42:39;99238.28;;;30.32;35.38
7376;BME280;3728;42.266;24.944;2023-05-24T12:45:10;99238.44;;;30.28;33.72
7376;BME280;3728;42.266;24.944;2023-05-24T12:47:39;99233.91;;;30.25;34.09
7376;BME280;3728;42.266;24.944;2023-05-24T12:50:08;99229.84;;;30.42;34.73
7376;BME280;3728;42.266;24.944;2023-05-24T12:52:37;99234.81;;;30.66;33.70
7376;BME280;3728;42.266;24.944;2023-05-24T12:55:05;99236.69;;;30.78;34.33
7376;BME280;3728;42.266;24.944;2023-05-24T12:57:35;99244.78;;;30.78;34.43
7376;BME280;3728;42.266;24.944;2023-05-24T13:00:04;99247.06;;;31.10;34.51
7376;BME280;3728;42.266;24.944;2023-05-24T13:02:55;99234.66;;;31.22;33.87
7376;BME280;3728;42.266;24.944;2023-05-24T13:05:27;99243.66;;;31.19;34.10
7376;BME280;3728;42.266;24.944;2023-05-24T13:07:56;99239.41;;;31.08;33.21
7376;BME280;3728;42.266;24.944;2023-05-24T13:10:24;99237.06;;;31.29;34.62
7376;BME280;3728;42.266;24.944;2023-05-24T13:12:52;99236.84;;;31.05;33.85
7376;BME280;3728;42.266;24.944;2023-05-24T13:15:19;99239.81;;;30.76;32.84
7376;BME280;3728;42.266;24.944;2023-05-24T13:17:49;99238.44;;;30.93;33.01
7376;BME280;3728;42.266;24.944;2023-05-24T13:20:18;99245.97;;;30.98;31.97
7376;BME280;3728;42.266;24.944;2023-05-24T13:22:50;99253.22;;;30.02;33.98
7376;BME280;3728;42.266;24.944;2023-05-24T13:25:19;99252.84;;;29.66;35.55
7376;BME280;3728;42.266;24.944;2023-05-24T13:27:48;99255.66;;;29.62;37.40
7376;BME280;3728;42.266;24.944;2023-05-24T13:30:15;99260.97;;;28.74;40.91
7376;BME280;3728;42.266;24.944;2023-05-24T13:32:43;99260.38;;;27.93;43.10
7376;BME280;3728;42.266;24.944;2023-05-24T13:35:14;99249.09;;;27.50;44.01
7376;BME280;3728;42.266;24.944;2023-05-24T13:37:42;99246.94;;;27.25;44.95
7376;BME280;3728;42.266;24.944;2023-05-24T13:40:10;99247.16;;;26.79;46.21
7376;BME280;3728;42.266;24.944;2023-05-24T13:42:37;99253.59;;;26.42;45.30
7376;BME280;3728;42.266;24.944;2023-05-24T13:45:06;99243.88;;;26.28;43.73